createdAt,value
2018-05-21T00:00:52.093Z,61.18
2018-05-21T00:01:52.063Z,60.70
2018-05-21T00:02:52.042Z,59.71
2018-05-21T00:03:52.022Z,60.86
2018-05-21T00:04:51.984Z,64.02
2018-05-21T00:05:51.968Z,61.15
2018-05-21T00:06:51.947Z,60.67
2018-05-21T00:07:51.918Z,60.28
2018-05-21T00:08:51.898Z,62.87
2018-05-21T00:09:51.874Z,60.96
2018-05-21T00:10:51.847Z,60.86
2018-05-21T00:11:51.831Z,63.16
2018-05-21T00:12:51.795Z,63.92
2018-05-21T00:13:51.781Z,61.72
2018-05-21T00:14:51.750Z,61.82
2018-05-21T00:15:51.730Z,61.15
2018-05-21T00:16:51.700Z,60.96
2018-05-21T00:17:51.680Z,62.20
2018-05-21T00:18:51.649Z,61.72
2018-05-21T00:19:51.622Z,63.06
2018-05-21T00:20:51.626Z,60.96
2018-05-21T00:21:51.577Z,61.43
2018-05-21T00:22:51.561Z,63.64
2018-05-21T00:23:51.537Z,64.89
2018-05-21T00:24:51.500Z,64.12
2018-05-21T00:25:51.490Z,64.02
2018-05-21T00:26:51.457Z,61.91
2018-05-21T00:27:51.441Z,60.47
2018-05-21T00:28:51.410Z,60.28
2018-05-21T00:29:51.392Z,62.20
2018-05-21T00:30:51.360Z,62.20
2018-05-21T00:31:51.336Z,61.50
2018-05-21T00:32:51.317Z,61.82
2018-05-21T00:33:51.283Z,63.22
2018-05-21T00:34:51.262Z,62.10
2018-05-21T00:35:51.238Z,62.93
2018-05-21T00:36:51.218Z,61.50
2018-05-21T00:37:51.188Z,61.60
2018-05-21T00:38:51.169Z,61.31
2018-05-21T00:39:51.152Z,61.79
2018-05-21T00:40:51.114Z,61.69
2018-05-21T00:41:51.098Z,63.89
2018-05-21T00:42:51.067Z,62.36
2018-05-21T00:43:51.054Z,62.65
2018-05-21T00:44:51.017Z,64.56
2018-05-21T00:45:50.996Z,63.13
2018-05-21T00:46:50.971Z,62.07
2018-05-21T00:47:50.954Z,64.95
2018-05-21T00:48:50.919Z,63.89
2018-05-21T00:49:50.894Z,62.17
2018-05-21T00:50:50.874Z,62.65
2018-05-21T00:51:50.852Z,61.21
2018-05-21T00:52:50.824Z,61.31
2018-05-21T00:53:50.798Z,62.93
2018-05-21T00:54:50.779Z,62.17
2018-05-21T00:55:50.752Z,62.93
2018-05-21T00:56:50.728Z,62.65
2018-05-21T00:57:50.702Z,62.07
2018-05-21T00:58:50.678Z,62.65
2018-05-21T00:59:50.654Z,64.76
2018-05-21T01:00:50.622Z,63.32
2018-05-21T01:01:50.605Z,66.67
2018-05-21T01:02:50.581Z,66.48
2018-05-21T01:03:50.554Z,65.91
2018-05-21T01:04:50.534Z,66.77
2018-05-21T01:05:50.513Z,64.85
2018-05-21T01:06:50.484Z,65.52
2018-05-21T01:07:50.458Z,64.18
2018-05-21T01:08:50.431Z,64.85
2018-05-21T01:09:50.417Z,65.14
2018-05-21T01:10:50.385Z,66.58
2018-05-21T01:11:50.362Z,66.48
2018-05-21T01:12:50.335Z,66.58
2018-05-21T01:13:50.342Z,66.29
2018-05-21T01:14:50.287Z,66.29
2018-05-21T01:15:50.321Z,67.15
2018-05-21T01:16:50.241Z,64.37
2018-05-21T01:17:50.211Z,68.21
2018-05-21T01:18:50.193Z,68.78
2018-05-21T01:19:50.172Z,69.74
2018-05-21T01:20:50.133Z,69.35
2018-05-21T01:21:50.112Z,70.03
2018-05-21T01:22:50.085Z,70.79
2018-05-21T01:23:50.072Z,69.74
2018-05-21T01:24:50.046Z,69.17
2018-05-21T01:25:50.059Z,68.97
2018-05-21T01:26:49.994Z,65.88
2018-05-21T01:27:49.968Z,67.98
2018-05-21T01:28:49.945Z,70.85
2018-05-21T01:29:49.914Z,69.23
2018-05-21T01:30:49.895Z,69.51
2018-05-21T01:31:49.869Z,67.11
2018-05-21T01:32:49.839Z,67.88
2018-05-21T01:33:49.824Z,68.74
2018-05-21T01:34:49.792Z,68.07
2018-05-21T01:35:49.766Z,67.98
2018-05-21T01:36:49.746Z,67.98
2018-05-21T01:37:49.723Z,69.23
2018-05-21T01:38:49.704Z,71.23
2018-05-21T01:39:49.666Z,70.37
2018-05-21T01:40:49.658Z,67.50
2018-05-21T01:41:49.621Z,67.31
2018-05-21T01:42:49.599Z,68.65
2018-05-21T01:43:49.581Z,67.21
2018-05-21T01:44:49.541Z,68.27
2018-05-21T01:45:49.535Z,69.23
2018-05-21T01:46:49.492Z,70.37
2018-05-21T01:47:49.475Z,71.33
2018-05-21T01:48:49.444Z,70.18
2018-05-21T01:49:49.429Z,69.42
2018-05-21T01:50:49.399Z,68.94
2018-05-21T01:51:49.376Z,69.03
2018-05-21T01:52:49.354Z,65.88
2018-05-21T01:53:49.329Z,69.23
2018-05-21T01:54:49.301Z,71.23
2018-05-21T01:55:49.275Z,71.62
2018-05-21T01:56:49.253Z,69.70
2018-05-21T01:57:49.227Z,70.66
2018-05-21T01:58:49.202Z,67.21
2018-05-21T01:59:49.181Z,64.50
2018-05-21T02:00:49.149Z,66.74
2018-05-21T02:01:49.131Z,67.08
2018-05-21T02:02:49.106Z,65.55
2018-05-21T02:03:49.084Z,67.94
2018-05-21T02:04:49.050Z,68.13
2018-05-21T02:05:49.032Z,66.51
2018-05-21T02:06:49.005Z,69.09
2018-05-21T02:07:48.978Z,71.68
2018-05-21T02:08:48.952Z,71.77
2018-05-21T02:09:48.927Z,70.09
2018-05-21T02:10:48.909Z,67.94
2018-05-21T02:11:48.891Z,67.94
2018-05-21T02:12:48.853Z,67.08
2018-05-21T02:13:48.833Z,66.70
2018-05-21T02:14:48.804Z,67.18
2018-05-21T02:15:48.780Z,68.80
2018-05-21T02:16:48.759Z,66.99
2018-05-21T02:17:48.731Z,69.19
2018-05-21T02:18:48.710Z,69.00
2018-05-21T02:19:48.677Z,70.05
2018-05-21T02:20:48.656Z,72.06
2018-05-21T02:21:48.637Z,71.48
2018-05-21T02:22:48.613Z,71.68
2018-05-21T02:23:48.581Z,72.25
2018-05-21T02:24:48.560Z,73.30
2018-05-21T02:25:48.530Z,71.58
2018-05-21T02:26:48.510Z,71.87
2018-05-21T02:27:48.482Z,69.29
2018-05-21T02:28:48.459Z,68.71
2018-05-21T02:29:48.437Z,71.01
2018-05-21T02:30:48.405Z,69.76
2018-05-21T02:31:48.388Z,69.00
2018-05-21T02:32:48.359Z,68.39
2018-05-21T02:33:48.332Z,69.73
2018-05-21T02:34:48.317Z,70.50
2018-05-21T02:35:48.281Z,68.10
2018-05-21T02:36:48.262Z,67.82
2018-05-21T02:37:48.233Z,71.64
2018-05-21T02:38:48.214Z,70.11
2018-05-21T02:39:48.180Z,68.58
2018-05-21T02:40:48.170Z,68.29
2018-05-21T02:41:48.141Z,70.30
2018-05-21T02:42:48.118Z,69.35
2018-05-21T02:43:48.088Z,68.68
2018-05-21T02:44:48.059Z,70.21
2018-05-21T02:45:48.039Z,70.11
2018-05-21T02:46:48.016Z,69.82
2018-05-21T02:47:47.989Z,69.64
2018-05-21T02:48:47.962Z,70.68
2018-05-21T02:49:48.010Z,70.11
2018-05-21T02:50:47.906Z,70.21
2018-05-21T02:51:47.891Z,71.26
2018-05-21T02:52:47.859Z,72.60
2018-05-21T02:53:47.840Z,73.75
2018-05-21T02:54:47.809Z,71.16
2018-05-21T02:55:47.792Z,71.16
2018-05-21T02:56:47.756Z,70.11
2018-05-21T02:57:47.822Z,71.16
2018-05-21T02:58:47.711Z,72.50
2018-05-21T02:59:47.685Z,74.04
2018-05-21T03:00:47.662Z,71.73
2018-05-21T03:01:47.693Z,70.50
2018-05-21T03:02:47.611Z,70.78
2018-05-21T03:03:47.640Z,71.73
2018-05-21T03:04:47.561Z,71.93
2018-05-21T03:05:47.539Z,74.32
2018-05-21T03:06:47.511Z,76.42
2018-05-21T03:07:47.496Z,77.19
2018-05-21T03:08:47.465Z,74.13
2018-05-21T03:09:47.446Z,72.69
2018-05-21T03:10:47.413Z,73.65
2018-05-21T03:11:47.394Z,75.85
2018-05-21T03:12:47.367Z,74.99
2018-05-21T03:13:47.336Z,74.32
2018-05-21T03:14:47.310Z,75.66
2018-05-21T03:15:47.286Z,74.22
2018-05-21T03:16:47.268Z,75.27
2018-05-21T03:17:47.233Z,74.80
2018-05-21T03:18:47.217Z,71.64
2018-05-21T03:19:47.193Z,71.16
2018-05-21T03:20:47.164Z,70.94
2018-05-21T03:21:47.146Z,70.36
2018-05-21T03:22:47.115Z,73.43
2018-05-21T03:23:47.089Z,72.69
2018-05-21T03:24:47.066Z,73.23
2018-05-21T03:25:47.039Z,73.75
2018-05-21T03:26:47.017Z,71.89
2018-05-21T03:27:46.987Z,72.12
2018-05-21T03:28:46.964Z,71.70
2018-05-21T03:29:46.936Z,72.75
2018-05-21T03:30:46.910Z,72.37
2018-05-21T03:31:46.900Z,75.14
2018-05-21T03:32:46.861Z,73.43
2018-05-21T03:33:46.835Z,76.39
2018-05-21T03:34:46.816Z,75.14
2018-05-21T03:35:46.785Z,72.28
2018-05-21T03:36:46.767Z,72.37
2018-05-21T03:37:46.738Z,73.71
2018-05-21T03:38:46.713Z,74.57
2018-05-21T03:39:46.691Z,72.47
2018-05-21T03:40:46.659Z,72.08
2018-05-21T03:41:46.641Z,71.70
2018-05-21T03:42:46.615Z,72.66
2018-05-21T03:43:46.584Z,71.70
2018-05-21T03:44:46.569Z,71.03
2018-05-21T03:45:46.539Z,70.75
2018-05-21T03:46:46.510Z,71.32
2018-05-21T03:47:46.490Z,72.28
2018-05-21T03:48:46.461Z,71.22
2018-05-21T03:49:46.438Z,71.13
2018-05-21T03:50:46.417Z,72.66
2018-05-21T03:51:46.391Z,75.91
2018-05-21T03:52:46.363Z,75.24
2018-05-21T03:53:46.342Z,75.24
2018-05-21T03:54:46.311Z,73.14
2018-05-21T03:55:46.282Z,72.47
2018-05-21T03:56:46.269Z,71.51
2018-05-21T03:57:46.237Z,71.70
2018-05-21T03:58:46.217Z,71.89
2018-05-21T03:59:46.193Z,73.33
2018-05-21T04:00:46.158Z,75.91
2018-05-21T04:01:46.146Z,72.85
2018-05-21T04:02:46.108Z,74.76
2018-05-21T04:03:46.086Z,74.48
2018-05-21T04:04:46.062Z,73.43
2018-05-21T04:05:46.034Z,75.52
2018-05-21T04:06:46.014Z,77.25
2018-05-21T04:07:47.210Z,76.04
2018-05-21T04:08:46.771Z,75.24
2018-05-21T04:09:46.760Z,73.27
2018-05-21T04:10:46.733Z,75.76
2018-05-21T04:11:46.761Z,76.67
2018-05-21T04:12:46.369Z,76.29
2018-05-21T04:13:46.853Z,73.75
2018-05-21T04:14:45.811Z,75.47
2018-05-21T04:15:45.793Z,75.05
2018-05-21T04:16:45.768Z,74.48
2018-05-21T04:17:45.740Z,74.66
2018-05-21T04:18:45.790Z,75.56
2018-05-21T04:19:45.687Z,77.00
2018-05-21T04:20:45.668Z,76.42
2018-05-21T04:21:45.635Z,77.00
2018-05-21T04:22:45.616Z,77.76
2018-05-21T04:23:45.596Z,76.42
2018-05-21T04:24:45.560Z,77.28
2018-05-21T04:25:45.548Z,76.71
2018-05-21T04:26:45.507Z,77.57
2018-05-21T04:27:45.492Z,74.90
2018-05-21T04:28:45.464Z,74.80
2018-05-21T04:29:45.430Z,74.61
2018-05-21T04:30:45.413Z,76.52
2018-05-21T04:31:45.395Z,75.76
2018-05-21T04:32:45.355Z,75.37
2018-05-21T04:33:45.344Z,75.37
2018-05-21T04:34:45.305Z,75.18
2018-05-21T04:35:45.296Z,77.09
2018-05-21T04:36:45.255Z,77.57
2018-05-21T04:37:45.238Z,76.14
2018-05-21T04:38:45.215Z,77.00
2018-05-21T04:39:45.189Z,75.66
2018-05-21T04:40:45.166Z,76.14
2018-05-21T04:41:45.142Z,76.90
2018-05-21T04:42:45.110Z,73.27
2018-05-21T04:43:45.091Z,72.60
2018-05-21T04:44:45.060Z,73.94
2018-05-21T04:45:45.042Z,75.37
2018-05-21T04:46:45.010Z,76.14
2018-05-21T04:47:44.988Z,75.18
2018-05-21T04:48:44.961Z,75.18
2018-05-21T04:49:44.933Z,75.18
2018-05-21T04:50:44.914Z,76.94
2018-05-21T04:51:44.891Z,77.33
2018-05-21T04:52:44.856Z,78.19
2018-05-21T04:53:44.836Z,76.46
2018-05-21T04:54:44.814Z,76.46
2018-05-21T04:55:44.784Z,76.18
2018-05-21T04:56:44.765Z,75.60
2018-05-21T04:57:44.735Z,77.13
2018-05-21T04:58:44.708Z,76.75
2018-05-21T04:59:44.684Z,76.46
2018-05-21T05:00:44.658Z,76.75
2018-05-21T05:01:44.640Z,75.93
2018-05-21T05:02:44.607Z,76.31
2018-05-21T05:03:44.592Z,76.60
2018-05-21T05:04:44.571Z,76.12
2018-05-21T05:05:44.531Z,75.54
2018-05-21T05:06:44.513Z,73.44
2018-05-21T05:07:44.497Z,74.97
2018-05-21T05:08:44.471Z,75.35
2018-05-21T05:09:44.453Z,75.26
2018-05-21T05:10:44.419Z,75.73
2018-05-21T05:11:44.394Z,74.20
2018-05-21T05:12:44.365Z,74.30
2018-05-21T05:13:44.338Z,73.34
2018-05-21T05:14:44.314Z,72.48
2018-05-21T05:15:44.285Z,73.91
2018-05-21T05:16:44.268Z,72.86
2018-05-21T05:17:44.246Z,73.24
2018-05-21T05:18:44.217Z,76.12
2018-05-21T05:19:44.193Z,75.64
2018-05-21T05:20:44.158Z,75.48
2018-05-21T05:21:44.143Z,74.77
2018-05-21T05:22:44.114Z,75.26
2018-05-21T05:23:44.083Z,75.83
2018-05-21T05:24:44.068Z,75.87
2018-05-21T05:25:44.040Z,75.20
2018-05-21T05:26:44.041Z,75.68
2018-05-21T05:27:43.990Z,75.58
2018-05-21T05:28:43.967Z,75.58
2018-05-21T05:29:43.946Z,75.29
2018-05-21T05:30:43.915Z,75.20
2018-05-21T05:31:43.889Z,75.29
2018-05-21T05:32:43.865Z,75.48
2018-05-21T05:33:43.835Z,75.58
2018-05-21T05:34:43.817Z,72.52
2018-05-21T05:35:43.796Z,74.43
2018-05-21T05:36:43.770Z,72.80
2018-05-21T05:37:43.749Z,74.62
2018-05-21T05:38:43.720Z,74.05
2018-05-21T05:39:43.687Z,73.38
2018-05-21T05:40:43.674Z,72.13
2018-05-21T05:41:43.638Z,73.28
2018-05-21T05:42:43.622Z,73.38
2018-05-21T05:43:43.596Z,70.03
2018-05-21T05:44:43.593Z,72.03
2018-05-21T05:45:43.556Z,72.52
2018-05-21T05:46:43.516Z,71.88
2018-05-21T05:47:43.496Z,71.66
2018-05-21T05:48:43.477Z,72.74
2018-05-21T05:49:43.440Z,71.50
2018-05-21T05:50:43.423Z,71.78
2018-05-21T05:51:43.395Z,71.50
2018-05-21T05:52:43.370Z,66.71
2018-05-21T05:53:43.345Z,67.66
2018-05-21T05:54:43.324Z,68.81
2018-05-21T05:55:43.304Z,67.85
2018-05-21T05:56:43.279Z,65.94
2018-05-21T05:57:43.254Z,68.72
2018-05-21T05:58:43.219Z,69.68
2018-05-21T05:59:43.207Z,69.29
2018-05-21T06:00:43.179Z,69.39
2018-05-21T06:01:43.148Z,70.25
2018-05-21T06:02:43.142Z,71.88
2018-05-21T06:03:43.124Z,70.25
2018-05-21T06:04:43.074Z,69.48
2018-05-21T06:05:43.056Z,69.13
2018-05-21T06:06:43.027Z,69.23
2018-05-21T06:07:43.001Z,67.41
2018-05-21T06:08:42.970Z,68.27
2018-05-21T06:09:42.953Z,67.99
2018-05-21T06:10:42.932Z,68.18
2018-05-21T06:11:42.907Z,68.46
2018-05-21T06:12:42.884Z,67.50
2018-05-21T06:13:42.911Z,69.33
2018-05-21T06:14:42.831Z,67.12
2018-05-21T06:15:42.823Z,66.74
2018-05-21T06:16:42.775Z,66.45
2018-05-21T06:17:42.755Z,67.79
2018-05-21T06:18:42.749Z,67.02
2018-05-21T06:19:42.704Z,66.74
2018-05-21T06:20:42.687Z,66.26
2018-05-21T06:21:42.660Z,67.89
2018-05-21T06:22:42.632Z,66.35
2018-05-21T06:23:42.606Z,68.12
2018-05-21T06:24:42.586Z,68.79
2018-05-21T06:25:42.563Z,68.02
2018-05-21T06:26:42.528Z,68.88
2018-05-21T06:27:42.515Z,67.06
2018-05-21T06:28:42.479Z,65.52
2018-05-21T06:29:42.463Z,67.73
2018-05-21T06:30:42.439Z,67.25
2018-05-21T06:31:42.407Z,67.54
2018-05-21T06:32:42.385Z,66.67
2018-05-21T06:33:42.390Z,67.92
2018-05-21T06:34:42.345Z,67.35
2018-05-21T06:35:42.315Z,65.62
2018-05-21T06:36:42.287Z,67.16
2018-05-21T06:37:42.279Z,66.96
2018-05-21T06:38:42.242Z,65.43
2018-05-21T06:39:42.212Z,66.58
2018-05-21T06:40:42.193Z,65.52
2018-05-21T06:41:42.171Z,64.66
2018-05-21T06:42:42.141Z,63.99
2018-05-21T06:43:42.114Z,66.00
2018-05-21T06:44:42.107Z,67.73
2018-05-21T06:45:42.728Z,66.67
2018-05-21T06:46:42.047Z,67.35
2018-05-21T06:47:42.051Z,66.58
2018-05-21T06:48:42.001Z,65.75
2018-05-21T06:49:41.967Z,66.03
2018-05-21T06:50:41.946Z,65.91
2018-05-21T06:51:41.917Z,65.52
2018-05-21T06:52:41.901Z,65.84
2018-05-21T06:53:41.872Z,66.03
2018-05-21T06:54:41.853Z,67.19
2018-05-21T06:55:41.835Z,65.94
2018-05-21T06:56:41.796Z,66.42
2018-05-21T06:57:41.780Z,67.96
2018-05-21T06:58:41.750Z,67.96
2018-05-21T06:59:41.804Z,67.19
2018-05-21T07:00:41.707Z,64.79
2018-05-21T07:01:41.686Z,64.69
2018-05-21T07:02:41.652Z,66.61
2018-05-21T07:03:41.633Z,67.00
2018-05-21T07:04:41.612Z,68.24
2018-05-21T07:05:41.583Z,67.19
2018-05-21T07:06:41.561Z,68.44
2018-05-21T07:07:41.539Z,64.92
2018-05-21T07:08:41.503Z,66.74
2018-05-21T07:09:41.484Z,67.03
2018-05-21T07:10:41.467Z,64.82
2018-05-21T07:11:41.445Z,65.20
2018-05-21T07:12:41.414Z,67.03
2018-05-21T07:13:41.389Z,66.84
2018-05-21T07:14:41.362Z,65.69
2018-05-21T07:15:41.342Z,63.96
2018-05-21T07:16:41.310Z,63.86
2018-05-21T07:17:41.299Z,65.69
2018-05-21T07:18:41.268Z,63.76
2018-05-21T07:19:41.239Z,65.97
2018-05-21T07:20:41.216Z,64.25
2018-05-21T07:21:41.201Z,64.72
2018-05-21T07:22:41.175Z,65.78
2018-05-21T07:23:41.144Z,65.62
2018-05-21T07:24:41.121Z,65.23
2018-05-21T07:25:41.093Z,64.28
2018-05-21T07:26:41.074Z,64.18
2018-05-21T07:27:41.048Z,64.37
2018-05-21T07:28:41.027Z,63.41
2018-05-21T07:29:41.007Z,63.51
2018-05-21T07:30:40.980Z,63.41
2018-05-21T07:31:40.955Z,62.84
2018-05-21T07:32:40.927Z,64.85
2018-05-21T07:33:40.905Z,63.99
2018-05-21T07:34:40.882Z,63.99
2018-05-21T07:35:40.854Z,63.51
2018-05-21T07:36:40.844Z,63.15
2018-05-21T07:37:40.810Z,64.89
2018-05-21T07:38:40.793Z,64.37
2018-05-21T07:39:40.767Z,64.50
2018-05-21T07:40:40.737Z,63.45
2018-05-21T07:41:40.709Z,63.54
2018-05-21T07:42:40.689Z,64.02
2018-05-21T07:43:40.665Z,64.79
2018-05-21T07:44:40.641Z,64.02
2018-05-21T07:45:40.617Z,62.87
2018-05-21T07:46:40.591Z,63.73
2018-05-21T07:47:40.569Z,64.02
2018-05-21T07:48:40.556Z,65.27
2018-05-21T07:49:40.516Z,63.28
2018-05-21T07:50:40.504Z,64.43
2018-05-21T07:51:40.575Z,63.64
2018-05-21T07:52:40.444Z,63.09
2018-05-21T07:53:40.429Z,62.99
2018-05-21T07:54:40.398Z,61.46
2018-05-21T07:55:40.373Z,63.38
2018-05-21T07:56:40.359Z,64.05
2018-05-21T07:57:40.327Z,62.99
2018-05-21T07:58:40.305Z,63.28
2018-05-21T07:59:40.287Z,63.28
2018-05-21T08:00:40.252Z,62.41
2018-05-21T08:01:40.239Z,62.23
2018-05-21T08:02:40.213Z,63.18
2018-05-21T08:03:40.194Z,62.99
2018-05-21T08:04:40.161Z,63.57
2018-05-21T08:05:40.138Z,61.94
2018-05-21T08:06:40.118Z,62.54
2018-05-21T08:07:40.090Z,63.02
2018-05-21T08:08:40.066Z,62.06
2018-05-21T08:09:40.041Z,62.74
2018-05-21T08:10:40.020Z,61.77
2018-05-21T08:11:40.004Z,60.81
2018-05-21T08:12:39.976Z,60.52
2018-05-21T08:13:39.954Z,61.00
2018-05-21T08:14:39.951Z,60.04
2018-05-21T08:15:39.903Z,60.81
2018-05-21T08:16:39.882Z,60.33
2018-05-21T08:17:39.857Z,59.47
2018-05-21T08:18:39.829Z,59.08
2018-05-21T08:19:39.809Z,60.07
2018-05-21T08:20:39.803Z,59.56
2018-05-21T08:21:39.761Z,59.88
2018-05-21T08:22:39.743Z,60.17
2018-05-21T08:23:39.719Z,60.07
2018-05-21T08:24:39.686Z,60.07
2018-05-21T08:25:39.665Z,59.40
2018-05-21T08:26:39.639Z,59.49
2018-05-21T08:27:39.623Z,58.24
2018-05-21T08:28:39.598Z,59.49
2018-05-21T08:29:39.573Z,59.01
2018-05-21T08:30:39.549Z,59.69
2018-05-21T08:31:39.536Z,59.78
2018-05-21T08:32:39.494Z,59.59
2018-05-21T08:33:39.483Z,60.75
2018-05-21T08:34:39.453Z,61.52
2018-05-21T08:35:39.428Z,59.43
2018-05-21T08:36:39.414Z,60.20
2018-05-21T08:37:39.388Z,59.33
2018-05-21T08:38:39.355Z,60.39
2018-05-21T08:39:39.353Z,59.62
2018-05-21T08:40:39.312Z,57.98
2018-05-21T08:41:39.287Z,58.27
2018-05-21T08:42:39.345Z,58.08
2018-05-21T08:43:39.243Z,57.24
2018-05-21T08:44:39.221Z,56.47
2018-05-21T08:45:39.202Z,55.22
2018-05-21T08:46:39.171Z,55.89
2018-05-21T08:47:39.146Z,57.05
2018-05-21T08:48:39.212Z,56.09
2018-05-21T08:49:39.109Z,56.47
2018-05-21T08:50:39.081Z,56.37
2018-05-21T08:51:39.758Z,54.83
2018-05-21T08:52:39.032Z,55.02
2018-05-21T08:53:39.005Z,55.41
2018-05-21T08:54:38.994Z,55.70
2018-05-21T08:55:38.964Z,55.02
2018-05-21T08:56:39.025Z,54.64
2018-05-21T08:57:38.926Z,54.64
2018-05-21T08:58:38.974Z,53.96
2018-05-21T08:59:38.868Z,55.89
2018-05-21T09:00:38.848Z,55.89
2018-05-21T09:01:38.835Z,55.60
2018-05-21T09:02:38.800Z,55.02
2018-05-21T09:03:38.774Z,54.16
2018-05-21T09:04:38.850Z,53.29
2018-05-21T09:05:38.739Z,54.44
2018-05-21T09:06:38.708Z,54.18
2018-05-21T09:07:38.687Z,54.16
2018-05-21T09:08:38.667Z,54.54
2018-05-21T09:09:38.637Z,54.18
2018-05-21T09:10:38.621Z,54.09
2018-05-21T09:11:38.597Z,55.15
2018-05-21T09:12:38.571Z,54.66
2018-05-21T09:13:38.546Z,55.05
2018-05-21T09:14:38.519Z,55.54
2018-05-21T09:15:38.498Z,55.05
2018-05-21T09:16:38.496Z,55.44
2018-05-21T09:17:38.459Z,54.76
2018-05-21T09:18:38.431Z,55.15
2018-05-21T09:19:38.405Z,56.21
2018-05-21T09:20:38.414Z,54.47
2018-05-21T09:21:38.364Z,54.86
2018-05-21T09:22:38.379Z,53.99
2018-05-21T09:23:38.314Z,53.89
2018-05-21T09:24:38.392Z,54.38
2018-05-21T09:25:38.268Z,54.02
2018-05-21T09:26:38.255Z,53.92
2018-05-21T09:27:38.219Z,53.92
2018-05-21T09:28:38.203Z,54.11
2018-05-21T09:29:38.175Z,53.73
2018-05-21T09:30:38.153Z,54.11
2018-05-21T09:31:38.137Z,54.40
2018-05-21T09:32:38.104Z,54.50
2018-05-21T09:33:38.095Z,53.63
2018-05-21T09:34:38.126Z,54.11
2018-05-21T09:35:38.036Z,54.02
2018-05-21T09:36:38.022Z,52.57
2018-05-21T09:37:37.992Z,54.21
2018-05-21T09:38:37.978Z,54.69
2018-05-21T09:39:37.943Z,53.53
2018-05-21T09:40:37.929Z,53.05
2018-05-21T09:41:37.898Z,53.34
2018-05-21T09:42:37.877Z,54.50
2018-05-21T09:43:37.858Z,53.73
2018-05-21T09:44:37.826Z,52.19
2018-05-21T09:45:37.819Z,53.44
2018-05-21T09:46:37.780Z,53.44
2018-05-21T09:47:37.776Z,52.59
2018-05-21T09:48:37.862Z,52.79
2018-05-21T09:49:37.744Z,54.43
2018-05-21T09:50:37.745Z,53.56
2018-05-21T09:51:37.683Z,54.33
2018-05-21T09:52:37.641Z,54.82
2018-05-21T09:53:37.633Z,53.17
2018-05-21T09:54:37.605Z,52.59
2018-05-21T09:55:37.585Z,53.37
2018-05-21T09:56:37.629Z,54.14
2018-05-21T09:57:37.539Z,51.73
2018-05-21T09:58:37.519Z,52.89
2018-05-21T09:59:37.497Z,51.34
2018-05-21T10:00:37.464Z,52.59
2018-05-21T10:01:37.436Z,52.69
2018-05-21T10:02:37.464Z,52.69
2018-05-21T10:03:37.399Z,52.40
2018-05-21T10:04:37.373Z,51.53
2018-05-21T10:05:37.347Z,51.05
2018-05-21T10:06:37.338Z,51.56
2018-05-21T10:07:37.306Z,51.44
2018-05-21T10:08:37.279Z,52.50
2018-05-21T10:09:37.261Z,52.31
2018-05-21T10:10:37.234Z,52.33
2018-05-21T10:11:37.209Z,51.85
2018-05-21T10:12:37.196Z,52.31
2018-05-21T10:13:37.169Z,52.62
2018-05-21T10:14:37.782Z,52.59
2018-05-21T10:15:37.127Z,52.81
2018-05-21T10:16:37.100Z,52.62
2018-05-21T10:17:37.091Z,52.53
2018-05-21T10:18:37.057Z,53.11
2018-05-21T10:19:37.027Z,52.43
2018-05-21T10:20:37.023Z,51.46
2018-05-21T10:21:36.994Z,51.46
2018-05-21T10:22:36.968Z,51.95
2018-05-21T10:23:36.946Z,52.43
2018-05-21T10:24:36.917Z,53.39
2018-05-21T10:25:36.903Z,52.33
2018-05-21T10:26:36.867Z,51.27
2018-05-21T10:27:36.849Z,52.43
2018-05-21T10:28:36.841Z,51.46
2018-05-21T10:29:36.835Z,51.37
2018-05-21T10:30:36.777Z,51.17
2018-05-21T10:31:36.766Z,51.56
2018-05-21T10:32:36.744Z,51.27
2018-05-21T10:33:36.715Z,51.07
2018-05-21T10:34:36.697Z,51.27
2018-05-21T10:35:36.674Z,49.63
2018-05-21T10:36:36.724Z,49.82
2018-05-21T10:37:36.626Z,49.24
2018-05-21T10:38:36.601Z,49.15
2018-05-21T10:39:36.573Z,50.40
2018-05-21T10:40:36.559Z,50.11
2018-05-21T10:41:36.528Z,50.69
2018-05-21T10:42:36.515Z,50.89
2018-05-21T10:43:36.487Z,50.89
2018-05-21T10:44:36.472Z,50.98
2018-05-21T10:45:36.441Z,49.82
2018-05-21T10:46:36.427Z,51.20
2018-05-21T10:47:36.393Z,51.20
2018-05-21T10:48:36.424Z,49.85
2018-05-21T10:49:36.350Z,49.85
2018-05-21T10:50:36.329Z,49.85
2018-05-21T10:51:36.308Z,50.13
2018-05-21T10:52:36.313Z,50.81
2018-05-21T10:53:36.262Z,48.97
2018-05-21T10:54:36.235Z,48.79
2018-05-21T10:55:36.219Z,48.88
2018-05-21T10:56:36.188Z,48.59
2018-05-21T10:57:36.219Z,49.55
2018-05-21T10:58:36.150Z,49.27
2018-05-21T10:59:36.123Z,49.75
2018-05-21T11:00:36.109Z,47.74
2018-05-21T11:01:36.083Z,46.49
2018-05-21T11:02:36.064Z,44.56
2018-05-21T11:03:36.038Z,44.17
2018-05-21T11:04:36.095Z,43.10
2018-05-21T11:05:35.984Z,43.49
2018-05-21T11:06:35.975Z,43.88
2018-05-21T11:07:35.947Z,43.03
2018-05-21T11:08:35.917Z,42.55
2018-05-21T11:09:36.021Z,41.77
2018-05-21T11:10:35.877Z,41.87
2018-05-21T11:11:35.864Z,41.77
2018-05-21T11:12:35.831Z,40.71
2018-05-21T11:13:35.821Z,41.48
2018-05-21T11:14:35.786Z,42.07
2018-05-21T11:15:35.763Z,42.47
2018-05-21T11:16:35.747Z,41.58
2018-05-21T11:17:35.736Z,41.87
2018-05-21T11:18:35.702Z,40.52
2018-05-21T11:19:35.681Z,39.36
2018-05-21T11:20:35.652Z,39.86
2018-05-21T11:21:35.632Z,38.79
2018-05-21T11:22:35.614Z,38.89
2018-05-21T11:23:35.587Z,39.67
2018-05-21T11:24:35.616Z,40.34
2018-05-21T11:25:35.546Z,40.92
2018-05-21T11:26:35.521Z,40.92
2018-05-21T11:27:35.499Z,39.67
2018-05-21T11:28:35.478Z,39.28
2018-05-21T11:29:35.462Z,38.31
2018-05-21T11:30:35.430Z,39.09
2018-05-21T11:31:35.434Z,40.15
2018-05-21T11:32:35.385Z,39.37
2018-05-21T11:33:35.364Z,38.89
2018-05-21T11:34:35.362Z,39.37
2018-05-21T11:35:35.317Z,39.28
2018-05-21T11:36:35.343Z,39.37
2018-05-21T11:37:35.279Z,40.05
2018-05-21T11:38:35.250Z,39.95
2018-05-21T11:39:35.233Z,38.21
2018-05-21T11:40:35.212Z,37.73
2018-05-21T11:41:35.189Z,39.18
2018-05-21T11:42:35.162Z,40.05
2018-05-21T11:43:35.145Z,40.26
2018-05-21T11:44:35.120Z,37.75
2018-05-21T11:45:35.105Z,38.43
2018-05-21T11:46:35.070Z,38.04
2018-05-21T11:47:35.061Z,38.62
2018-05-21T11:48:35.031Z,38.91
2018-05-21T11:49:35.014Z,38.04
2018-05-21T11:50:35.064Z,38.43
2018-05-21T11:51:34.970Z,38.91
2018-05-21T11:52:34.973Z,38.33
2018-05-21T11:53:34.925Z,38.33
2018-05-21T11:54:34.903Z,38.04
2018-05-21T11:55:34.882Z,38.13
2018-05-21T11:56:34.857Z,38.91
2018-05-21T11:57:34.836Z,38.06
2018-05-21T11:58:34.811Z,38.25
2018-05-21T11:59:34.795Z,38.23
2018-05-21T12:00:34.773Z,39.41
2018-05-21T12:01:34.752Z,38.06
2018-05-21T12:02:34.756Z,39.70
2018-05-21T12:03:34.710Z,38.06
2018-05-21T12:04:34.678Z,38.54
2018-05-21T12:05:34.663Z,37.77
2018-05-21T12:06:34.640Z,38.15
2018-05-21T12:07:34.644Z,38.93
2018-05-21T12:08:34.592Z,39.03
2018-05-21T12:09:34.568Z,38.27
2018-05-21T12:10:34.562Z,38.07
2018-05-21T12:11:34.537Z,36.51
2018-05-21T12:12:34.505Z,36.91
2018-05-21T12:13:34.585Z,36.82
2018-05-21T12:14:34.466Z,36.82
2018-05-21T12:15:34.438Z,35.94
2018-05-21T12:16:34.456Z,36.04
2018-05-21T12:17:34.403Z,36.14
2018-05-21T12:18:34.378Z,36.14
2018-05-21T12:19:34.357Z,37.01
2018-05-21T12:20:34.334Z,35.75
2018-05-21T12:21:34.309Z,36.24
2018-05-21T12:22:34.295Z,35.46
2018-05-21T12:23:34.267Z,35.27
2018-05-21T12:24:34.249Z,36.91
2018-05-21T12:25:34.225Z,37.30
2018-05-21T12:26:34.201Z,36.64
2018-05-21T12:27:34.181Z,37.11
2018-05-21T12:28:34.196Z,36.62
2018-05-21T12:29:34.135Z,35.85
2018-05-21T12:30:34.125Z,35.85
2018-05-21T12:31:34.101Z,35.57
2018-05-21T12:32:34.068Z,36.83
2018-05-21T12:33:34.060Z,36.06
2018-05-21T12:34:34.028Z,35.57
2018-05-21T12:35:34.013Z,35.86
2018-05-21T12:36:33.992Z,37.03
2018-05-21T12:37:33.960Z,36.44
2018-05-21T12:38:33.946Z,37.23
2018-05-21T12:39:33.929Z,36.83
2018-05-21T12:40:33.902Z,35.96
2018-05-21T12:41:33.885Z,38.68
2018-05-21T12:42:33.854Z,37.15
2018-05-21T12:43:33.838Z,36.08
2018-05-21T12:44:33.818Z,36.18
2018-05-21T12:45:33.797Z,34.23
2018-05-21T12:46:33.782Z,34.33
2018-05-21T12:47:33.761Z,34.33
2018-05-21T12:48:33.730Z,34.72
2018-05-21T12:49:33.711Z,35.01
2018-05-21T12:50:33.686Z,34.33
2018-05-21T12:51:33.663Z,33.84
2018-05-21T12:52:33.643Z,35.21